Time;durP1;ratioP1;P1;durP2;ratioP2;P2;SDS_P1;SDS_P2;PMS_P1;PMS_P2;Temp;Humidity;BMP_temperature;BMP_pressure;BME280_temperature;BME280_humidity;BME280_pressure;Samples;Min_cycle;Max_cycle;Signal;HPM_P1;HPM_P2
2022/09/26 03:55:37;;;;;;;20.17;13.18;;;;;;;11.89;100.00;99589.69;6658874;26;20682;-87
2022/09/26 04:36:56;;;;;;;22.37;14.38;;;;;;;11.93;100.00;99545.88;6659197;26;20062;-89
2022/09/26 04:39:59;;;;;;;24.08;15.32;;;;;;;11.87;100.00;99549.41;6657977;26;34064;-88
2022/09/26 04:43:03;;;;;;;22.92;15.10;;;;;;;11.90;100.00;99557.09;6666634;26;34712;-89
2022/09/26 04:46:27;;;;;;;22.75;14.43;;;;;;;11.92;100.00;99565.00;6642236;26;32428;-88
2022/09/26 04:49:33;;;;;;;25.15;15.25;;;;;;;11.92;100.00;99568.50;6664163;26;34538;-88
2022/09/26 04:52:35;;;;;;;22.00;14.27;;;;;;;12.00;100.00;99562.09;6661005;26;35322;-88
2022/09/26 04:55:43;;;;;;;24.33;14.98;;;;;;;11.95;100.00;99557.31;6658503;26;34713;-88
2022/09/26 04:58:48;;;;;;;23.23;14.82;;;;;;;11.98;100.00;99550.69;6627960;26;33603;-88
2022/09/26 05:05:57;;;;;;;22.05;14.10;;;;;;;12.01;100.00;99564.56;6590200;26;34633;-89
2022/09/26 05:09:01;;;;;;;23.25;14.85;;;;;;;11.98;100.00;99562.28;6658113;26;34658;-89
2022/09/26 05:16:26;;;;;;;22.48;14.55;;;;;;;12.00;100.00;99565.63;6661244;26;20067;-89
2022/09/26 05:19:31;;;;;;;23.25;15.00;;;;;;;12.02;100.00;99554.59;6658091;26;34170;-88
2022/09/26 05:22:36;;;;;;;23.35;15.07;;;;;;;12.00;100.00;99552.13;6658510;26;32966;-89
2022/09/26 05:29:03;;;;;;;23.38;15.23;;;;;;;12.04;100.00;99560.63;6674666;26;35377;-90
2022/09/26 05:52:21;;;;;;;22.90;14.63;;;;;;;12.08;100.00;99544.84;6622304;26;34076;-89
2022/09/26 05:55:29;;;;;;;24.95;15.80;;;;;;;12.11;100.00;99560.63;6658159;26;34013;-89
2022/09/26 05:58:36;;;;;;;23.17;15.02;;;;;;;12.13;100.00;99572.06;6656860;26;34036;-89
2022/09/26 06:01:45;;;;;;;24.35;15.90;;;;;;;12.05;100.00;99566.84;6628205;26;33598;-89
2022/09/26 06:13:08;;;;;;;29.75;17.92;;;;;;;12.00;100.00;99543.22;6659608;26;20082;-89
2022/09/26 06:16:19;;;;;;;27.98;16.83;;;;;;;11.99;100.00;99545.09;6659770;26;34029;-89
2022/09/26 06:35:45;;;;;;;31.90;17.42;;;;;;;12.23;100.00;99523.91;6658689;26;20344;-89
2022/09/26 06:39:05;;;;;;;31.73;18.30;;;;;;;12.24;100.00;99523.69;6657858;26;33951;-89
2022/09/26 06:42:08;;;;;;;27.95;15.85;;;;;;;12.29;100.00;99524.94;6639220;26;32682;-89
2022/09/26 06:49:27;;;;;;;29.98;18.00;;;;;;;12.40;100.00;99545.84;6661234;26;20064;-89
2022/09/26 06:52:35;;;;;;;28.80;17.70;;;;;;;12.33;100.00;99539.66;6648348;26;34376;-90
2022/09/26 06:55:38;;;;;;;28.00;17.87;;;;;;;12.35;100.00;99542.97;6653405;26;35362;-89
2022/09/26 06:58:45;;;;;;;29.08;17.33;;;;;;;12.48;100.00;99537.53;6642595;26;35759;-92
2022/09/26 07:02:26;;;;;;;27.87;17.33;;;;;;;12.53;100.00;99534.22;6639844;26;20126;-88
2022/09/26 07:05:57;;;;;;;28.90;16.85;;;;;;;12.71;100.00;99526.28;6657056;26;34464;-88
2022/09/26 07:13:09;;;;;;;27.92;16.70;;;;;;;12.69;100.00;99528.34;6664824;26;20071;-90
2022/09/26 07:16:12;;;;;;;28.95;18.10;;;;;;;12.71;100.00;99534.38;6657591;26;33751;-90
2022/09/26 07:39:57;;;;;;;33.13;18.27;;;;;;;13.27;100.00;99536.44;6618069;26;35517;-89
2022/09/26 07:43:04;;;;;;;31.45;18.30;;;;;;;13.38;100.00;99545.75;6577532;26;32478;-89
2022/09/26 07:54:48;;;;;;;30.15;17.55;;;;;;;13.43;100.00;99570.28;6571954;27;20080;-89
2022/09/26 07:57:55;;;;;;;29.27;17.42;;;;;;;13.51;100.00;99564.63;6601938;26;34707;-89
2022/09/26 08:01:20;;;;;;;29.20;17.73;;;;;;;13.54;100.00;99561.50;6615503;26;35365;-89
2022/09/26 08:04:25;;;;;;;27.92;17.65;;;;;;;13.57;100.00;99571.00;6600211;26;34064;-91
2022/09/26 08:19:16;;;;;;;22.92;15.10;;;;;;;13.76;100.00;99564.66;6598227;26;20420;-89
2022/09/26 09:08:21;;;;;;;10.77;7.85;;;;;;;14.73;100.00;99577.81;6649947;26;34629;-91
2022/09/26 09:11:36;;;;;;;11.20;7.90;;;;;;;14.87;100.00;99570.38;6638912;26;34432;-91
2022/09/26 09:15:27;;;;;;;11.68;7.57;;;;;;;15.34;100.00;99573.34;6619420;26;32756;-91
2022/09/26 09:18:41;;;;;;;8.75;6.47;;;;;;;15.74;100.00;99572.84;6638721;26;34212;-91
2022/09/26 09:22:06;;;;;;;10.68;6.87;;;;;;;15.97;100.00;99580.19;6638832;26;34213;-91
2022/09/26 10:03:47;;;;;;;7.40;5.32;;;;;;;16.96;100.00;99545.03;6575514;27;20067;-89
2022/09/26 10:06:51;;;;;;;;;;;;;;;17.43;100.00;99545.72;6609761;26;33970;-89
2022/09/26 10:09:56;;;;;;;7.68;4.90;;;;;;;17.63;99.42;99542.53;6602923;26;34500;-89
2022/09/26 10:13:05;;;;;;;5.95;4.60;;;;;;;17.99;95.54;99542.34;6626503;26;35658;-90
2022/09/26 10:16:13;;;;;;;6.10;4.78;;;;;;;17.75;92.45;99536.19;6617247;26;34895;-91
2022/09/26 10:19:35;;;;;;;6.67;4.97;;;;;;;17.99;91.90;99535.03;6636862;26;33946;-89
2022/09/26 10:30:48;;;;;;;5.45;4.05;;;;;;;17.47;89.25;99545.22;6633770;26;20052;-88
2022/09/26 10:34:26;;;;;;;4.80;3.80;;;;;;;17.54;92.30;99541.28;6610591;26;20044;-91
2022/09/26 10:37:30;;;;;;;5.18;4.20;;;;;;;17.93;90.35;99537.88;6614017;26;33940;-91
2022/09/26 10:40:47;;;;;;;5.40;4.05;;;;;;;18.07;88.37;99537.31;6608818;26;33910;-89
2022/09/26 10:43:55;;;;;;;5.55;3.87;;;;;;;18.12;88.66;99539.31;6608990;26;34311;-88
2022/09/26 10:47:07;;;;;;;4.93;3.60;;;;;;;17.94;87.95;99540.38;6607241;26;33457;-89
2022/09/26 10:50:25;;;;;;;7.00;4.15;;;;;;;17.74;89.22;99535.37;6609460;26;34140;-89
2022/09/26 10:53:37;;;;;;;5.60;3.70;;;;;;;17.35;90.66;99540.66;6616930;26;31745;-92
2022/09/26 10:56:48;;;;;;;4.10;3.40;;;;;;;17.65;90.76;99534.13;6675214;26;34806;-91
2022/09/26 11:00:07;;;;;;;3.87;3.42;;;;;;;18.19;84.59;99536.41;6653166;26;34706;-91
2022/09/26 11:03:14;;;;;;;3.67;3.28;;;;;;;18.18;82.38;99543.75;6662354;26;33745;-89
2022/09/26 11:06:39;;;;;;;3.97;2.90;;;;;;;18.09;82.70;99545.25;6657699;26;33795;-91
2022/09/26 11:09:46;;;;;;;4.57;3.00;;;;;;;17.64;81.15;99546.91;6661093;26;35323;-91
2022/09/26 11:12:56;;;;;;;4.70;3.50;;;;;;;17.56;82.65;99543.75;6643763;26;33938;-90
2022/09/26 11:16:07;;;;;;;6.20;3.60;;;;;;;17.47;85.46;99545.22;6671650;26;35646;-90
2022/09/26 11:19:32;;;;;;;6.20;3.70;;;;;;;17.40;89.52;99551.66;6661428;26;34158;-89
2022/09/26 11:22:43;;;;;;;4.18;3.55;;;;;;;17.57;86.91;99561.72;6656472;26;33807;-89
2022/09/26 11:26:05;;;;;;;3.62;3.08;;;;;;;17.63;90.38;99563.47;6643124;26;32519;-89
2022/09/26 11:29:17;;;;;;;4.40;3.42;;;;;;;17.54;85.92;99556.78;6656962;26;34685;-89
2022/09/26 11:32:28;;;;;;;5.37;3.60;;;;;;;17.52;86.99;99557.03;6638103;26;33902;-89
2022/09/26 11:35:32;;;;;;;;;;;;;;;17.44;86.96;99557.41;6665124;26;33775;-89
2022/09/26 11:38:40;;;;;;;5.32;3.65;;;;;;;17.19;89.52;99550.38;6660196;26;34902;-89
2022/09/26 11:41:59;;;;;;;3.85;3.45;;;;;;;17.29;90.86;99541.63;6660119;26;33858;-89
2022/09/26 11:45:15;;;;;;;3.40;3.03;;;;;;;17.26;88.36;99533.09;6644191;26;32669;-89
2022/09/26 11:49:01;;;;;;;4.12;3.15;;;;;;;17.44;87.82;99541.91;6661142;26;33940;-89
2022/09/26 11:52:13;;;;;;;3.30;3.00;;;;;;;17.93;87.16;99540.59;6664298;26;33920;-89
2022/09/26 11:55:48;;;;;;;3.58;3.10;;;;;;;18.44;83.28;99534.06;6665717;26;34055;-89
2022/09/26 11:59:20;;;;;;;3.85;3.45;;;;;;;19.01;80.85;99535.69;6662030;26;33915;-89
2022/09/26 12:02:30;;;;;;;3.50;3.20;;;;;;;18.88;80.00;99545.06;6643626;26;32941;-89
2022/09/26 12:05:38;;;;;;;5.32;3.10;;;;;;;19.02;78.34;99532.72;6644775;26;32414;-89
2022/09/26 12:09:06;;;;;;;3.08;2.67;;;;;;;19.86;73.38;99533.34;6664830;26;33988;-89
2022/09/26 12:12:20;;;;;;;4.65;3.25;;;;;;;19.53;72.34;99531.62;6663915;26;34722;-89
2022/09/26 12:16:01;;;;;;;3.33;2.83;;;;;;;19.76;72.55;99525.88;6662458;26;34673;-89
2022/09/26 12:19:23;;;;;;;2.60;2.40;;;;;;;22.13;62.01;99524.78;6673176;26;34306;-89
2022/09/26 12:22:29;;;;;;;3.03;2.72;;;;;;;24.79;53.84;99504.03;6667659;26;33809;-89
2022/09/26 12:25:46;;;;;;;2.67;2.22;;;;;;;27.35;46.87;99508.09;6667161;26;34237;-89
2022/09/26 12:29:09;;;;;;;2.62;2.42;;;;;;;29.28;42.33;99489.50;6667553;26;34111;-89
2022/09/26 12:32:18;;;;;;;2.85;2.22;;;;;;;29.64;38.39;99489.22;6651068;26;33646;-89
2022/09/26 12:35:20;;;;;;;;;;;;;;;27.12;42.49;99479.56;6666952;26;34149;-89
2022/09/26 12:38:45;;;;;;;2.37;2.17;;;;;;;25.00;51.11;99482.56;6644341;26;34173;-89
2022/09/26 12:42:03;;;;;;;2.45;2.17;;;;;;;23.27;54.82;99480.28;6663845;26;34703;-88
2022/09/26 12:45:18;;;;;;;2.05;1.90;;;;;;;25.01;51.67;99467.69;6642450;26;32457;-88
2022/09/26 12:48:39;;;;;;;2.15;1.87;;;;;;;28.13;43.77;99472.75;6665130;26;34088;-88
2022/09/26 12:51:57;;;;;;;2.42;2.22;;;;;;;30.34;38.77;99470.50;6681470;26;34824;-89
2022/09/26 12:59:21;;;;;;;2.78;2.50;;;;;;;28.88;38.33;99461.84;6671343;26;20032;-89
2022/09/26 13:02:41;;;;;;;2.87;2.22;;;;;;;25.49;46.13;99453.00;6655572;26;34048;-89
2022/09/26 13:06:05;;;;;;;;;;;;;;;22.97;54.07;99442.84;6628327;26;32402;-89
2022/09/26 13:09:43;;;;;;;2.72;2.53;;;;;;;21.92;60.25;99454.63;6651781;26;34349;-89
2022/09/26 13:13:16;;;;;;;2.50;2.30;;;;;;;22.06;57.95;99454.91;6636457;26;33598;-89
2022/09/26 13:16:45;;;;;;;3.00;2.55;;;;;;;21.93;58.47;99454.34;6630395;26;32815;-89
2022/09/26 13:19:57;;;;;;;2.97;2.50;;;;;;;22.12;58.57;99449.12;6663564;26;34013;-89
2022/09/26 13:23:26;;;;;;;3.83;2.28;;;;;;;23.68;51.76;99462.72;6642317;26;32525;-90
2022/09/26 13:26:34;;;;;;;2.45;2.25;;;;;;;24.02;49.87;99472.91;6662632;26;33599;-89
2022/09/26 13:29:38;;;;;;;;;;;;;;;22.82;54.15;99471.16;6644666;26;32138;-89
2022/09/26 13:32:49;;;;;;;3.85;2.25;;;;;;;21.39;58.08;99475.97;6664514;26;34311;-89
2022/09/26 13:35:55;;;;;;;5.22;2.60;;;;;;;21.40;60.02;99459.25;6643534;26;32804;-89
2022/09/26 13:39:24;;;;;;;3.15;2.60;;;;;;;20.98;60.18;99468.44;6664076;26;34126;-89
2022/09/26 13:42:46;;;;;;;2.87;2.50;;;;;;;20.99;63.30;99467.34;6644166;26;33250;-89
2022/09/26 13:45:59;;;;;;;4.95;2.70;;;;;;;20.42;63.49;99459.97;6663205;26;33772;-90
2022/09/26 13:49:23;;;;;;;5.57;2.53;;;;;;;20.36;65.96;99455.56;6672460;26;34535;-89
2022/09/26 13:52:40;;;;;;;4.68;2.85;;;;;;;20.82;61.35;99470.28;6666181;26;35302;-89
2022/09/26 13:55:44;;;;;;;2.78;2.58;;;;;;;21.32;63.29;99467.16;6664493;26;35070;-89
2022/09/26 13:59:02;;;;;;;2.65;2.42;;;;;;;21.12;62.05;99462.44;6646963;26;32220;-89
2022/09/26 14:02:31;;;;;;;3.17;2.87;;;;;;;21.09;62.02;99461.09;6667947;26;34296;-90
2022/09/26 14:05:40;;;;;;;2.97;2.47;;;;;;;20.83;63.00;99465.66;6656952;26;32526;-89
2022/09/26 14:09:26;;;;;;;2.95;2.67;;;;;;;20.60;62.78;99453.25;6642243;26;33288;-89
2022/09/26 14:12:51;;;;;;;2.42;2.22;;;;;;;20.20;66.52;99434.69;6667397;26;33826;-89
2022/09/26 14:15:58;;;;;;;2.58;2.37;;;;;;;20.42;61.55;99451.78;6667276;26;33714;-89
2022/09/26 14:19:05;;;;;;;3.72;2.62;;;;;;;20.14;65.67;99448.31;6669318;26;35492;-89
2022/09/26 14:22:17;;;;;;;6.90;2.72;;;;;;;20.07;65.82;99444.19;6681372;26;35065;-88
2022/09/26 14:25:46;;;;;;;3.15;2.85;;;;;;;19.88;66.82;99443.75;6669439;26;34279;-89
2022/09/26 14:29:33;;;;;;;3.40;2.87;;;;;;;19.58;67.92;99444.31;6667409;26;33946;-89
2022/09/26 14:32:38;;;;;;;4.70;3.10;;;;;;;19.61;69.96;99441.88;6646602;26;33104;-90
2022/09/26 14:35:42;;;;;;;2.90;2.53;;;;;;;19.43;68.16;99426.72;6666780;26;34281;-89
2022/09/26 14:38:47;;;;;;;3.40;2.70;;;;;;;19.39;69.58;99422.03;6670525;26;33990;-89
2022/09/26 14:41:51;;;;;;;2.60;2.37;;;;;;;19.37;69.28;99416.03;6668294;26;34575;-89
2022/09/26 14:44:57;;;;;;;2.75;2.55;;;;;;;19.30;68.23;99418.12;6667338;26;35014;-89
2022/09/26 14:48:06;;;;;;;2.72;2.50;;;;;;;19.18;69.55;99416.38;6667792;26;35273;-90
2022/09/26 14:51:11;;;;;;;3.72;2.60;;;;;;;19.20;69.25;99406.03;6667899;26;35402;-92
2022/09/26 14:54:19;;;;;;;3.80;2.75;;;;;;;19.07;69.33;99401.00;6665852;26;34715;-90
2022/09/26 14:57:29;;;;;;;2.92;2.72;;;;;;;18.98;70.86;99406.09;6666115;26;34504;-90
2022/09/26 15:00:39;;;;;;;2.80;2.53;;;;;;;18.93;70.48;99402.50;6647703;26;33322;-90
2022/09/26 15:03:52;;;;;;;2.67;2.45;;;;;;;18.74;72.73;99415.63;6671185;26;34428;-90
2022/09/26 15:07:04;;;;;;;3.12;2.80;;;;;;;18.65;73.10;99412.50;6647067;26;32484;-89
2022/09/26 15:10:10;;;;;;;2.87;2.62;;;;;;;18.42;73.34;99410.84;6666430;26;34673;-90
2022/09/26 15:13:16;;;;;;;3.33;2.85;;;;;;;18.30;74.17;99415.59;6667784;26;33621;-90
2022/09/26 15:16:31;;;;;;;3.45;2.87;;;;;;;18.33;76.71;99409.66;6650717;26;32828;-89
2022/09/26 15:19:44;;;;;;;3.25;2.95;;;;;;;18.25;78.86;99401.91;6645396;26;32603;-90
2022/09/26 15:22:48;;;;;;;4.25;3.30;;;;;;;18.13;78.34;99400.13;6660720;26;34804;-90
2022/09/26 15:25:55;;;;;;;4.70;2.87;;;;;;;18.00;81.24;99405.13;6666643;26;33864;-90
2022/09/26 15:28:59;;;;;;;3.65;3.10;;;;;;;17.86;81.16;99394.56;6667756;26;34269;-90
2022/09/26 15:32:02;;;;;;;3.22;2.92;;;;;;;17.76;81.67;99391.66;6648581;26;32293;-90
2022/09/26 15:35:08;;;;;;;3.20;2.90;;;;;;;17.62;80.58;99390.34;6660311;26;34668;-89
2022/09/26 15:38:13;;;;;;;4.50;3.15;;;;;;;17.55;82.33;99389.69;6668394;26;33789;-90
2022/09/26 15:42:57;;;;;;;3.03;2.78;;;;;;;17.46;83.24;99389.25;6645695;26;34524;-89
2022/09/26 15:44:53;;;;;;;3.72;3.00;;;;;;;17.34;86.87;99381.19;6640339;26;34301;-89
2022/09/26 15:48:03;;;;;;;3.37;3.08;;;;;;;17.16;87.91;99382.25;6638150;26;33696;-92
2022/09/26 15:51:48;;;;;;;4.95;3.03;;;;;;;17.03;86.26;99388.00;6635559;26;33740;-90
2022/09/26 15:59:19;;;;;;;3.92;3.20;;;;;;;16.90;91.29;99391.00;6657856;26;20061;-89
